Time;durP1;ratioP1;P1;durP2;ratioP2;P2;SDS_P1;SDS_P2;PMS_P1;PMS_P2;Temp;Humidity;BMP_temperature;BMP_pressure;BME280_temperature;BME280_humidity;BME280_pressure;Samples;Min_cycle;Max_cycle;Signal;HPM_P1;HPM_P2
2021/12/12 06:35:14;;;;;;;;;;;6.80;99.90;;;;;;5131043;27;19923;-68
2021/12/12 06:37:40;;;;;;;;;;;;;;;;;;5130281;28;19912;-71
2021/12/12 06:40:06;;;;;;;;;;;6.70;99.90;;;;;;5129782;28;19919;-68
2021/12/12 06:42:32;;;;;;;;;;;6.70;99.90;;;;;;5130717;28;19915;-68
2021/12/12 06:44:58;;;;;;;;;;;6.80;99.90;;;;;;5111772;28;20525;-68
2021/12/12 06:47:24;;;;;;;;;;;6.80;99.90;;;;;;5130824;28;19908;-68
2021/12/12 06:49:50;;;;;;;;;;;6.90;99.90;;;;;;5111044;28;20305;-69
2021/12/12 06:52:17;;;;;;;;;;;6.90;99.90;;;;;;5130364;28;19912;-68
2021/12/12 06:54:43;;;;;;;;;;;;;;;;;;5122930;28;19965;-69
2021/12/12 06:57:10;;;;;;;;;;;6.90;99.90;;;;;;5117414;28;19908;-68
2021/12/12 06:59:38;;;;;;;;;;;6.90;99.90;;;;;;5110155;28;19931;-68
2021/12/12 07:02:04;;;;;;;;;;;6.90;99.90;;;;;;5129369;28;19957;-68
2021/12/12 07:04:30;;;;;;;;;;;;;;;;;;5130205;28;19924;-68
2021/12/12 07:06:57;;;;;;;;;;;6.90;99.90;;;;;;5129811;28;19912;-68
2021/12/12 07:09:23;;;;;;;;;;;6.90;99.90;;;;;;5129805;28;19907;-68
2021/12/12 07:11:49;;;;;;;;;;;6.90;99.90;;;;;;5129333;28;19914;-68
2021/12/12 07:14:15;;;;;;;;;;;6.90;99.90;;;;;;5109941;28;19916;-68
2021/12/12 07:16:41;;;;;;;;;;;;;;;;;;5109496;28;19908;-71
2021/12/12 07:19:07;;;;;;;;;;;6.90;99.90;;;;;;5109399;28;20108;-68
2021/12/12 07:21:33;;;;;;;;;;;6.90;99.90;;;;;;5109660;28;19915;-68
2021/12/12 07:23:59;;;;;;;;;;;7.00;99.90;;;;;;5090439;28;19955;-68
2021/12/12 07:26:26;;;;;;;;;;;7.00;99.90;;;;;;5109288;28;19943;-68
2021/12/12 07:28:52;;;;;;;;;;;6.90;99.90;;;;;;5108946;28;19908;-68
2021/12/12 07:31:19;;;;;;;;;;;6.90;99.90;;;;;;5109775;28;19915;-68
2021/12/12 07:33:45;;;;;;;;;;;;;;;;;;5121507;28;19990;-72
2021/12/12 07:36:11;;;;;;;;;;;7.00;99.90;;;;;;5119345;28;19955;-68
2021/12/12 07:38:41;;;;;;;;;;;7.00;99.90;;;;;;5109665;28;19912;-68
2021/12/12 07:41:06;;;;;;;;;;;7.00;99.90;;;;;;5125931;28;19998;-68
2021/12/12 07:43:33;;;;;;;;;;;7.00;99.90;;;;;;5112351;28;19970;-68
2021/12/12 07:45:59;;;;;;;;;;;7.00;99.90;;;;;;5115562;28;19912;-68
2021/12/12 07:48:24;;;;;;;;;;;7.00;99.90;;;;;;5116114;28;20260;-67
2021/12/12 07:50:50;;;;;;;;;;;7.10;99.90;;;;;;5115792;28;19945;-68
2021/12/12 07:53:17;;;;;;;;;;;7.10;99.90;;;;;;5116550;28;20344;-68
2021/12/12 07:55:43;;;;;;;;;;;;;;;;;;5115582;28;19912;-69
2021/12/12 07:58:10;;;;;;;;;;;7.10;99.90;;;;;;5116226;28;20267;-68
2021/12/12 08:00:35;;;;;;;;;;;7.20;99.90;;;;;;5116122;28;19908;-68
2021/12/12 08:03:01;;;;;;;;;;;7.20;99.90;;;;;;5115237;28;19915;-68
2021/12/12 08:05:29;;;;;;;;;;;7.10;99.90;;;;;;5097642;28;20410;-68
2021/12/12 08:08:04;;;;;;;;;;;7.10;99.90;;;;;;5112802;28;19981;-68
2021/12/12 08:10:30;;;;;;;;;;;;;;;;;;5102970;28;19912;-69
2021/12/12 08:12:55;;;;;;;;;;;7.10;99.90;;;;;;5085402;28;19965;-69
2021/12/12 08:15:21;;;;;;;;;;;7.10;99.90;;;;;;5103265;28;19918;-69
2021/12/12 08:17:47;;;;;;;;;;;7.30;99.90;;;;;;5105598;28;20385;-69
2021/12/12 08:20:13;;;;;;;;;;;7.30;99.90;;;;;;5114082;28;19908;-68
2021/12/12 08:22:39;;;;;;;;;;;;;;;;;;5115230;28;20375;-67
2021/12/12 08:25:06;;;;;;;;;;;7.30;99.90;;;;;;5114871;28;19999;-69
2021/12/12 08:27:32;;;;;;;;;;;7.30;99.90;;;;;;5115425;28;19908;-68
2021/12/12 08:29:59;;;;;;;;;;;7.30;99.90;;;;;;5114429;28;19918;-68
2021/12/12 08:32:25;;;;;;;;;;;7.30;99.90;;;;;;5107019;28;19908;-69
2021/12/12 08:34:51;;;;;;;;;;;7.40;99.90;;;;;;5113964;28;19927;-69
2021/12/12 08:37:17;;;;;;;;;;;;;;;;;;5114799;28;19916;-69
2021/12/12 08:39:43;;;;;;;;;;;;;;;;;;5114417;28;19908;-67
2021/12/12 08:42:08;;;;;;;;;;;7.40;99.90;;;;;;5115455;28;19908;-68
2021/12/12 08:44:34;;;;;;;;;;;;;;;;;;5114662;28;19907;-70
2021/12/12 08:47:00;;;;;;;;;;;7.40;99.90;;;;;;5114146;28;19908;-68
2021/12/12 08:49:28;;;;;;;;;;;7.40;99.90;;;;;;5114169;28;20010;-68
2021/12/12 08:51:56;;;;;;;;;;;7.50;99.90;;;;;;5114272;28;19908;-68
2021/12/12 08:54:26;;;;;;;;;;;7.50;99.90;;;;;;5114813;28;19916;-67
2021/12/12 08:57:02;;;;;;;;;;;7.60;99.90;;;;;;5113237;28;19949;-69
2021/12/12 08:59:27;;;;;;;;;;;;;;;;;;5114735;28;19919;-70
2021/12/12 09:01:58;;;;;;;;;;;7.60;99.90;;;;;;5104465;28;19908;-68
2021/12/12 09:04:27;;;;;;;;;;;7.60;99.90;;;;;;5109983;28;19915;-72
2021/12/12 09:06:59;;;;;;;;;;;7.70;99.90;;;;;;5111668;28;19957;-73
2021/12/12 09:09:27;;;;;;;;;;;7.70;99.90;;;;;;5106620;28;20283;-68
2021/12/12 09:12:00;;;;;;;;;;;7.70;99.90;;;;;;5113595;28;19993;-69
2021/12/12 09:14:31;;;;;;;;;;;7.70;99.90;;;;;;5114551;28;20275;-69
2021/12/12 09:16:57;;;;;;;;;;;;;;;;;;5092917;28;20325;-70
2021/12/12 09:19:26;;;;;;;;;;;7.70;99.90;;;;;;5115017;28;19908;-70
2021/12/12 09:21:55;;;;;;;;;;;7.70;99.90;;;;;;5114207;28;19908;-69
2021/12/12 09:24:26;;;;;;;;;;;7.70;99.90;;;;;;5114625;28;19908;-70
2021/12/12 09:26:56;;;;;;;;;;;7.70;99.90;;;;;;5095031;28;19908;-70
2021/12/12 09:29:28;;;;;;;;;;;7.80;99.90;;;;;;5114698;28;19947;-70
2021/12/12 09:32:00;;;;;;;;;;;7.80;99.90;;;;;;5111655;28;19907;-69
2021/12/12 09:34:48;;;;;;;;;;;7.90;99.90;;;;;;5093456;28;19982;-69
2021/12/12 09:37:19;;;;;;;;;;;7.90;99.90;;;;;;5094548;28;19971;-70
2021/12/12 09:39:48;;;;;;;;;;;8.00;99.90;;;;;;5102146;28;19912;-70
2021/12/12 09:42:13;;;;;;;;;;;;;;;;;;5101692;28;19927;-71
2021/12/12 09:44:42;;;;;;;;;;;8.00;99.90;;;;;;5100437;28;20263;-70
2021/12/12 09:47:26;;;;;;;;;;;8.10;99.90;;;;;;5101648;28;19938;-70
2021/12/12 09:52:55;;;;;;;;;;;8.20;99.90;;;;;;5092196;28;19923;-70
2021/12/12 09:55:24;;;;;;;;;;;8.20;99.90;;;;;;5093184;28;19908;-70
2021/12/12 09:57:50;;;;;;;;;;;;;;;;;;5092557;28;19908;-74
2021/12/12 10:00:19;;;;;;;;;;;8.20;99.90;;;;;;5093555;28;20470;-70
2021/12/12 10:02:44;;;;;;;;;;;;;;;;;;5099995;28;19923;-71
2021/12/12 10:05:29;;;;;;;;;;;8.30;99.90;;;;;;5092387;28;19908;-70
2021/12/12 10:08:03;;;;;;;;;;;8.30;99.90;;;;;;5086488;28;19908;-70
2021/12/12 10:10:32;;;;;;;;;;;8.30;99.90;;;;;;5112353;28;19954;-70
2021/12/12 10:12:59;;;;;;;;;;;8.40;99.90;;;;;;5091657;28;20395;-70
2021/12/12 10:15:26;;;;;;;;;;;8.40;99.90;;;;;;5101988;28;19931;-69
2021/12/12 10:17:51;;;;;;;;;;;;;;;;;;5111010;28;19934;-74
2021/12/12 10:20:17;;;;;;;;;;;8.40;99.90;;;;;;5074742;28;20360;-70
2021/12/12 10:22:42;;;;;;;;;;;8.50;99.90;;;;;;5095116;28;19916;-70
2021/12/12 10:25:13;;;;;;;;;;;8.50;99.90;;;;;;5107780;28;19912;-70
2021/12/12 10:27:44;;;;;;;;;;;8.50;99.90;;;;;;5092672;28;19915;-69
2021/12/12 10:30:17;;;;;;;;;;;8.50;99.90;;;;;;5099969;28;19915;-71
2021/12/12 10:32:43;;;;;;;;;;;;;;;;;;5106322;28;20492;-72
2021/12/12 10:35:09;;;;;;;;;;;;;;;;;;5103962;28;20415;-74
2021/12/12 10:37:35;;;;;;;;;;;;;;;;;;5086292;28;19916;-72
2021/12/12 10:40:05;;;;;;;;;;;8.60;99.90;;;;;;5101864;28;19965;-71
2021/12/12 10:42:31;;;;;;;;;;;;;;;;;;5102269;28;19973;-72
2021/12/12 10:45:05;;;;;;;;;;;8.70;99.90;;;;;;5097332;28;19920;-71
2021/12/12 10:47:33;;;;;;;;;;;8.70;99.90;;;;;;5076180;28;19962;-71
2021/12/12 10:50:13;;;;;;;;;;;8.70;99.90;;;;;;5092133;28;19912;-71
2021/12/12 10:52:45;;;;;;;;;;;8.60;99.90;;;;;;5094938;28;19981;-71
2021/12/12 10:55:10;;;;;;;;;;;;;;;;;;5092585;28;19950;-71
2021/12/12 10:57:38;;;;;;;;;;;8.70;99.90;;;;;;5109914;28;19944;-71
2021/12/12 11:00:03;;;;;;;;;;;8.70;99.90;;;;;;5090272;28;19919;-71
2021/12/12 11:02:34;;;;;;;;;;;8.80;99.90;;;;;;5094383;28;20288;-71
2021/12/12 11:05:04;;;;;;;;;;;8.80;99.90;;;;;;5111992;28;19908;-71
2021/12/12 11:07:32;;;;;;;;;;;8.80;99.90;;;;;;5112681;28;19947;-71
2021/12/12 11:10:30;;;;;;;;;;;8.80;99.90;;;;;;5110801;28;20427;-71
2021/12/12 11:13:08;;;;;;;;;;;8.80;99.90;;;;;;5057144;28;21807;-71
2021/12/12 11:15:33;;;;;;;;;;;8.80;99.90;;;;;;5092206;28;19958;-71
2021/12/12 11:18:05;;;;;;;;;;;8.90;99.90;;;;;;5091526;28;19908;-71
2021/12/12 11:20:36;;;;;;;;;;;8.80;99.90;;;;;;5094089;28;19915;-71
2021/12/12 11:23:04;;;;;;;;;;;8.80;99.90;;;;;;5095439;28;19908;-71
2021/12/12 11:25:45;;;;;;;;;;;8.80;99.90;;;;;;5089773;28;19998;-71
2021/12/12 11:28:13;;;;;;;;;;;8.80;99.90;;;;;;5081642;28;20348;-71
2021/12/12 11:30:45;;;;;;;;;;;8.80;99.90;;;;;;5116248;28;19933;-71
2021/12/12 11:33:13;;;;;;;;;;;8.80;99.90;;;;;;5104813;28;19966;-71
2021/12/12 11:35:43;;;;;;;;;;;8.70;99.90;;;;;;5098101;28;20317;-71
2021/12/12 11:38:16;;;;;;;;;;;8.80;99.90;;;;;;5115129;28;19947;-71
2021/12/12 11:40:47;;;;;;;;;;;8.70;99.90;;;;;;5097859;28;19908;-71
2021/12/12 11:43:13;;;;;;;;;;;8.80;99.90;;;;;;5104786;28;20263;-71
2021/12/12 11:45:41;;;;;;;;;;;8.70;99.90;;;;;;5116356;28;19911;-71
2021/12/12 11:48:15;;;;;;;;;;;8.80;99.90;;;;;;5099102;28;19916;-71
2021/12/12 11:50:54;;;;;;;;;;;8.80;99.90;;;;;;5085611;28;19972;-71
2021/12/12 11:53:22;;;;;;;;;;;8.80;99.90;;;;;;5111083;28;19920;-71
2021/12/12 11:55:57;;;;;;;;;;;8.80;99.90;;;;;;5095505;28;19912;-71
2021/12/12 11:58:38;;;;;;;;;;;8.80;99.90;;;;;;5113650;28;19912;-71
2021/12/12 12:01:06;;;;;;;;;;;8.80;99.90;;;;;;5108413;28;19912;-71
2021/12/12 12:03:48;;;;;;;;;;;8.80;99.90;;;;;;5110623;28;19931;-71
2021/12/12 12:06:35;;;;;;;;;;;8.80;99.90;;;;;;5094500;28;19983;-71
2021/12/12 12:09:06;;;;;;;;;;;8.80;99.90;;;;;;5076449;28;20018;-71
2021/12/12 12:11:32;;;;;;;;;;;8.80;99.90;;;;;;5095194;28;19908;-71
2021/12/12 12:13:58;;;;;;;;;;;;;;;;;;5099733;28;19972;-74
2021/12/12 12:16:32;;;;;;;;;;;8.80;99.90;;;;;;5105635;28;19908;-71
2021/12/12 12:18:58;;;;;;;;;;;;;;;;;;5113804;28;19980;-73
2021/12/12 12:21:27;;;;;;;;;;;8.90;99.90;;;;;;5085827;28;20384;-71
2021/12/12 12:26:51;;;;;;;;;;;8.90;99.90;;;;;;5094912;28;20248;-71
2021/12/12 12:29:26;;;;;;;;;;;8.90;99.90;;;;;;5076263;28;19912;-71
2021/12/12 12:31:57;;;;;;;;;;;8.90;99.90;;;;;;5095011;28;20353;-71
2021/12/12 12:34:41;;;;;;;;;;;8.90;99.90;;;;;;5094313;28;20023;-71
2021/12/12 12:37:25;;;;;;;;;;;9.00;99.90;;;;;;5093632;28;19951;-72
2021/12/12 12:40:10;;;;;;;;;;;9.00;99.90;;;;;;5094685;28;19965;-71
2021/12/12 12:42:54;;;;;;;;;;;9.00;99.90;;;;;;5108544;28;19912;-71
2021/12/12 12:45:38;;;;;;;;;;;9.00;99.90;;;;;;5114254;28;19908;-71
2021/12/12 12:48:13;;;;;;;;;;;9.00;99.90;;;;;;5113830;28;19915;-71
2021/12/12 12:50:42;;;;;;;;;;;9.00;99.90;;;;;;5096564;28;20379;-71
2021/12/12 12:53:20;;;;;;;;;;;9.00;99.90;;;;;;5079710;28;19921;-71
2021/12/12 12:56:08;;;;;;;;;;;9.00;99.90;;;;;;5076301;28;19915;-71
2021/12/12 12:58:52;;;;;;;;;;;8.90;99.90;;;;;;5094313;28;20329;-71
2021/12/12 13:01:25;;;;;;;;;;;8.90;99.90;;;;;;5075310;28;20038;-71
2021/12/12 13:04:02;;;;;;;;;;;8.90;99.90;;;;;;5104912;28;19916;-71
2021/12/12 13:06:28;;;;;;;;;;;8.90;99.90;;;;;;5094353;28;19908;-71
2021/12/12 13:09:12;;;;;;;;;;;8.90;99.90;;;;;;5076996;28;19908;-71
2021/12/12 13:11:52;;;;;;;;;;;8.90;99.90;;;;;;5094091;28;20003;-71
2021/12/12 13:14:30;;;;;;;;;;;8.90;99.90;;;;;;5090286;28;19987;-71
2021/12/12 13:17:02;;;;;;;;;;;8.80;99.90;;;;;;5114534;28;19960;-71
2021/12/12 13:19:46;;;;;;;;;;;8.80;99.90;;;;;;5114675;28;19915;-71
2021/12/12 13:22:24;;;;;;;;;;;8.90;99.90;;;;;;5095255;28;19908;-71
2021/12/12 13:25:07;;;;;;;;;;;8.90;99.90;;;;;;5096262;28;20011;-71
2021/12/12 13:28:08;;;;;;;;;;;8.80;99.90;;;;;;5087823;28;19994;-71
2021/12/12 13:30:48;;;;;;;;;;;8.90;99.90;;;;;;5108051;28;19918;-71
2021/12/12 13:33:17;;;;;;;;;;;8.80;99.90;;;;;;5066013;28;20277;-71
2021/12/12 13:35:58;;;;;;;;;;;8.80;99.90;;;;;;5055065;28;19919;-71
2021/12/12 13:38:28;;;;;;;;;;;8.80;99.90;;;;;;5067367;28;19920;-71
2021/12/12 13:41:27;;;;;;;;;;;8.90;99.90;;;;;;5064045;28;20315;-71
2021/12/12 13:43:54;;;;;;;;;;;8.90;99.90;;;;;;5019139;28;19935;-71
2021/12/12 13:46:32;;;;;;;;;;;8.80;99.90;;;;;;5052115;28;20158;-71
2021/12/12 13:49:03;;;;;;;;;;;8.80;99.90;;;;;;5053207;28;19916;-72
2021/12/12 13:51:44;;;;;;;;;;;8.80;99.90;;;;;;5053492;28;19932;-71
2021/12/12 13:54:13;;;;;;;;;;;8.80;99.90;;;;;;5052803;28;19923;-71
2021/12/12 13:56:38;;;;;;;;;;;8.80;99.90;;;;;;5073006;28;19947;-69
2021/12/12 13:59:04;;;;;;;;;;;;;;;;;;5070929;28;20331;-71
2021/12/12 14:01:45;;;;;;;;;;;8.80;99.90;;;;;;5072848;28;19916;-70
2021/12/12 14:04:15;;;;;;;;;;;8.70;99.90;;;;;;5071701;28;19912;-70
2021/12/12 14:06:42;;;;;;;;;;;8.80;99.90;;;;;;5052614;28;19913;-70
2021/12/12 14:09:10;;;;;;;;;;;8.80;99.90;;;;;;5052236;28;20361;-70
2021/12/12 14:11:38;;;;;;;;;;;8.70;99.90;;;;;;5052757;28;19951;-70
2021/12/12 14:14:04;;;;;;;;;;;;;;;;;;5052232;28;19916;-73
2021/12/12 14:16:56;;;;;;;;;;;8.80;99.90;;;;;;5067186;28;19918;-70
2021/12/12 14:19:23;;;;;;;;;;;8.80;99.90;;;;;;5067732;28;20339;-70
2021/12/12 14:21:48;;;;;;;;;;;8.80;99.90;;;;;;5072423;28;19951;-70
2021/12/12 14:24:15;;;;;;;;;;;8.80;99.90;;;;;;5071655;28;20383;-70
2021/12/12 14:26:44;;;;;;;;;;;8.80;99.90;;;;;;5057952;28;20060;-71
2021/12/12 14:29:17;;;;;;;;;;;8.80;99.90;;;;;;5052149;28;19917;-70
2021/12/12 14:31:49;;;;;;;;;;;8.90;99.90;;;;;;5052379;28;20008;-70
2021/12/12 14:34:16;;;;;;;;;;;8.90;99.90;;;;;;5079407;28;19924;-69
2021/12/12 14:36:43;;;;;;;;;;;8.90;99.90;;;;;;5104158;28;19950;-69
2021/12/12 14:39:09;;;;;;;;;;;8.90;99.90;;;;;;5112282;28;19952;-70
2021/12/12 14:41:38;;;;;;;;;;;8.90;99.90;;;;;;5094717;28;19908;-70
2021/12/12 14:44:04;;;;;;;;;;;;;;;;;;5112656;28;19998;-73
2021/12/12 14:46:33;;;;;;;;;;;8.90;99.90;;;;;;5111616;28;20021;-69
2021/12/12 14:49:00;;;;;;;;;;;8.80;99.90;;;;;;5110048;28;19920;-69
2021/12/12 14:51:29;;;;;;;;;;;8.80;99.90;;;;;;5091767;28;19948;-69
2021/12/12 14:53:55;;;;;;;;;;;;;;;;;;5110332;28;20015;-69
2021/12/12 14:56:32;;;;;;;;;;;8.80;99.90;;;;;;5115316;28;19999;-69
2021/12/12 14:59:00;;;;;;;;;;;8.80;99.90;;;;;;5117275;28;19918;-70
2021/12/12 15:01:26;;;;;;;;;;;8.80;99.90;;;;;;5115841;28;19910;-70
2021/12/12 15:03:54;;;;;;;;;;;8.80;99.90;;;;;;5112395;28;19916;-70
2021/12/12 15:06:22;;;;;;;;;;;8.80;99.90;;;;;;5099127;28;19919;-70
2021/12/12 15:08:54;;;;;;;;;;;8.80;99.90;;;;;;5098522;28;19911;-70
2021/12/12 15:11:22;;;;;;;;;;;8.80;99.90;;;;;;5102046;28;20425;-70
2021/12/12 15:13:48;;;;;;;;;;;8.80;99.90;;;;;;5096535;28;19920;-70
2021/12/12 15:16:16;;;;;;;;;;;8.80;99.90;;;;;;5115993;28;20014;-70
2021/12/12 15:18:44;;;;;;;;;;;8.80;99.90;;;;;;5115973;28;19907;-70
2021/12/12 15:21:12;;;;;;;;;;;8.90;99.90;;;;;;5115766;28;19908;-70
2021/12/12 15:23:44;;;;;;;;;;;8.90;99.90;;;;;;5098160;28;20355;-69
2021/12/12 15:26:12;;;;;;;;;;;8.90;99.90;;;;;;5115636;28;19907;-70
2021/12/12 15:28:39;;;;;;;;;;;8.90;99.90;;;;;;5115690;28;19939;-71
2021/12/12 15:31:05;;;;;;;;;;;;;;;;;;5100169;28;19916;-74
2021/12/12 15:33:32;;;;;;;;;;;8.90;99.90;;;;;;5095259;28;19924;-71
2021/12/12 15:35:58;;;;;;;;;;;;;;;;;;5114660;28;19908;-72
2021/12/12 15:38:25;;;;;;;;;;;8.90;99.90;;;;;;5108537;28;19912;-71
2021/12/12 15:40:56;;;;;;;;;;;8.90;99.90;;;;;;5095802;28;20003;-71
2021/12/12 15:43:24;;;;;;;;;;;8.90;99.90;;;;;;5095059;28;20356;-71
2021/12/12 15:45:52;;;;;;;;;;;8.90;99.90;;;;;;5077569;28;19908;-69
2021/12/12 15:48:29;;;;;;;;;;;8.90;99.90;;;;;;5096786;28;19916;-70
2021/12/12 15:50:55;;;;;;;;;;;8.90;99.90;;;;;;5116018;28;19908;-69
2021/12/12 15:53:26;;;;;;;;;;;8.90;99.90;;;;;;5096953;28;20313;-69
2021/12/12 15:55:54;;;;;;;;;;;8.90;99.90;;;;;;5095581;28;20287;-69
2021/12/12 15:58:27;;;;;;;;;;;9.00;99.90;;;;;;5094640;28;19948;-69
2021/12/12 16:00:55;;;;;;;;;;;9.00;99.90;;;;;;5077379;28;20278;-69
2021/12/12 16:03:21;;;;;;;;;;;;;;;;;;5108940;28;19969;-69
2021/12/12 16:05:49;;;;;;;;;;;8.90;99.90;;;;;;5115264;28;20356;-69
2021/12/12 16:08:14;;;;;;;;;;;;;;;;;;5114953;28;19907;-69
2021/12/12 16:10:42;;;;;;;;;;;9.00;99.90;;;;;;5097459;28;20252;-69
2021/12/12 16:13:11;;;;;;;;;;;;;;;;;;5114795;28;20343;-73
2021/12/12 16:15:37;;;;;;;;;;;;;;;;;;5097325;28;19920;-69
2021/12/12 16:18:03;;;;;;;;;;;9.00;99.90;;;;;;5115140;28;19908;-69
2021/12/12 16:20:31;;;;;;;;;;;9.00;99.90;;;;;;5114604;28;20469;-70
2021/12/12 16:22:58;;;;;;;;;;;9.00;99.90;;;;;;5091150;28;19923;-70
2021/12/12 16:25:25;;;;;;;;;;;9.00;99.90;;;;;;5093909;28;19908;-71
2021/12/12 16:27:54;;;;;;;;;;;8.90;99.90;;;;;;5094955;28;19908;-69
2021/12/12 16:30:30;;;;;;;;;;;9.00;99.90;;;;;;5093751;28;20433;-68
2021/12/12 16:32:58;;;;;;;;;;;8.90;99.90;;;;;;5096503;28;20002;-68
2021/12/12 16:35:24;;;;;;;;;;;8.90;99.90;;;;;;5114113;28;19998;-69
2021/12/12 16:37:51;;;;;;;;;;;8.90;99.90;;;;;;5099137;28;19999;-69
2021/12/12 16:40:26;;;;;;;;;;;8.90;99.90;;;;;;5094153;28;19912;-70
2021/12/12 16:42:53;;;;;;;;;;;8.90;99.90;;;;;;5094815;28;19908;-70
2021/12/12 16:45:36;;;;;;;;;;;8.90;99.90;;;;;;5093617;28;19995;-70
2021/12/12 16:48:05;;;;;;;;;;;8.90;99.90;;;;;;5109960;28;19912;-70
2021/12/12 16:50:36;;;;;;;;;;;9.00;99.90;;;;;;5076557;28;19904;-71
2021/12/12 16:53:02;;;;;;;;;;;8.90;99.90;;;;;;5095482;28;19950;-72
2021/12/12 16:55:30;;;;;;;;;;;9.00;99.90;;;;;;5102804;28;20012;-72
2021/12/12 16:58:04;;;;;;;;;;;9.00;99.90;;;;;;5103275;28;19912;-71
2021/12/12 17:00:33;;;;;;;;;;;9.00;99.90;;;;;;5101420;28;20493;-72
2021/12/12 17:02:59;;;;;;;;;;;;;;;;;;5102505;28;19916;-71
2021/12/12 17:05:28;;;;;;;;;;;9.00;99.90;;;;;;5082917;28;20042;-70
2021/12/12 17:08:13;;;;;;;;;;;9.00;99.90;;;;;;5100103;28;19911;-72
2021/12/12 17:10:39;;;;;;;;;;;;;;;;;;5102949;28;20005;-72
2021/12/12 17:13:05;;;;;;;;;;;9.10;99.90;;;;;;5089712;28;19954;-70
2021/12/12 17:15:31;;;;;;;;;;;9.10;99.90;;;;;;5112140;28;19920;-71
2021/12/12 17:18:13;;;;;;;;;;;9.10;99.90;;;;;;5111377;28;19908;-71
2021/12/12 17:20:53;;;;;;;;;;;9.10;99.90;;;;;;5093773;28;19915;-70
2021/12/12 17:23:25;;;;;;;;;;;9.20;99.90;;;;;;5111584;28;19958;-71
2021/12/12 17:25:51;;;;;;;;;;;;;;;;;;5090134;28;19912;-71
2021/12/12 17:28:17;;;;;;;;;;;9.20;99.90;;;;;;5111242;28;19915;-71
2021/12/12 17:30:53;;;;;;;;;;;9.30;99.90;;;;;;5102640;28;19912;-71
2021/12/12 17:33:27;;;;;;;;;;;9.30;99.90;;;;;;5093651;28;20325;-71
2021/12/12 17:35:56;;;;;;;;;;;9.30;99.90;;;;;;5101581;28;19962;-70
2021/12/12 17:38:23;;;;;;;;;;;9.30;99.90;;;;;;5109102;28;20364;-71
2021/12/12 17:40:54;;;;;;;;;;;9.30;99.90;;;;;;5106594;28;19912;-71
2021/12/12 17:43:41;;;;;;;;;;;9.30;99.90;;;;;;5092707;28;19999;-71
2021/12/12 17:46:26;;;;;;;;;;;9.30;99.90;;;;;;5093127;28;19945;-70
2021/12/12 17:48:54;;;;;;;;;;;9.30;99.90;;;;;;5095691;28;19931;-70
2021/12/12 17:51:24;;;;;;;;;;;9.40;99.90;;;;;;5106743;28;19912;-70
2021/12/12 17:53:59;;;;;;;;;;;9.40;99.90;;;;;;5093262;28;20368;-70
2021/12/12 17:56:43;;;;;;;;;;;9.30;99.90;;;;;;5111299;28;19912;-70
2021/12/12 17:59:20;;;;;;;;;;;9.30;99.90;;;;;;5113375;28;20308;-70
2021/12/12 18:01:46;;;;;;;;;;;;;;;;;;5094251;28;19912;-71
2021/12/12 18:04:13;;;;;;;;;;;9.30;99.90;;;;;;5094220;28;19972;-70
2021/12/12 18:06:45;;;;;;;;;;;9.20;99.90;;;;;;5110414;28;19919;-70
2021/12/12 18:09:29;;;;;;;;;;;9.30;99.90;;;;;;5101938;28;19908;-70
2021/12/12 18:11:55;;;;;;;;;;;;;;;;;;5090063;28;19916;-72
2021/12/12 18:14:21;;;;;;;;;;;;;;;;;;5088879;28;19927;-72
2021/12/12 18:16:53;;;;;;;;;;;9.30;99.90;;;;;;5099030;28;20389;-71
2021/12/12 18:19:38;;;;;;;;;;;9.20;99.90;;;;;;5092473;28;19912;-71
2021/12/12 18:22:09;;;;;;;;;;;9.30;99.90;;;;;;5074623;28;19955;-72
2021/12/12 18:24:38;;;;;;;;;;;9.30;99.90;;;;;;5112102;28;19966;-71
2021/12/12 18:27:07;;;;;;;;;;;9.30;99.90;;;;;;5112087;28;19908;-71
2021/12/12 18:29:42;;;;;;;;;;;9.20;99.90;;;;;;5108490;28;19915;-71
2021/12/12 18:32:08;;;;;;;;;;;9.30;99.90;;;;;;5093038;28;19916;-70
2021/12/12 18:34:34;;;;;;;;;;;;;;;;;;5107759;28;20275;-70
2021/12/12 18:37:01;;;;;;;;;;;9.20;99.90;;;;;;5100210;28;19912;-69
2021/12/12 18:39:36;;;;;;;;;;;9.20;99.90;;;;;;5110619;28;19908;-69
2021/12/12 18:42:07;;;;;;;;;;;9.20;99.90;;;;;;5074354;28;20241;-69
2021/12/12 18:44:35;;;;;;;;;;;9.20;99.90;;;;;;5109621;28;19912;-69
2021/12/12 18:47:03;;;;;;;;;;;9.20;99.90;;;;;;5102231;28;19912;-69
2021/12/12 18:49:31;;;;;;;;;;;9.20;99.90;;;;;;5083658;28;20010;-69
2021/12/12 18:51:58;;;;;;;;;;;;;;;;;;5082170;28;20437;-71
2021/12/12 18:54:26;;;;;;;;;;;9.20;99.90;;;;;;5082191;28;19998;-70
2021/12/12 18:56:55;;;;;;;;;;;9.20;99.90;;;;;;5102356;28;19939;-70
2021/12/12 18:59:25;;;;;;;;;;;9.20;99.90;;;;;;5108496;28;19912;-70
2021/12/12 19:01:53;;;;;;;;;;;9.20;99.90;;;;;;5112842;28;20006;-70
2021/12/12 19:04:19;;;;;;;;;;;;;;;;;;5112006;28;19915;-72
2021/12/12 19:06:46;;;;;;;;;;;9.20;99.90;;;;;;5099989;28;20012;-69
2021/12/12 19:09:12;;;;;;;;;;;;;;;;;;5072667;28;19915;-70
2021/12/12 19:11:38;;;;;;;;;;;;;;;;;;5090260;28;20485;-71
2021/12/12 19:14:04;;;;;;;;;;;;;;;;;;5100358;28;19967;-70
2021/12/12 19:16:29;;;;;;;;;;;9.30;99.90;;;;;;5084733;28;19911;-70
2021/12/12 19:18:55;;;;;;;;;;;;;;;;;;5108481;28;20403;-70
2021/12/12 19:21:21;;;;;;;;;;;;;;;;;;5100991;28;19946;-72
2021/12/12 19:23:47;;;;;;;;;;;;;;;;;;5088713;28;19908;-71
2021/12/12 19:26:13;;;;;;;;;;;;;;;;;;5107922;28;20337;-70
2021/12/12 19:28:39;;;;;;;;;;;;;;;;;;5099586;28;19908;-70
2021/12/12 19:31:05;;;;;;;;;;;;;;;;;;5070697;28;19912;-70
2021/12/12 19:33:31;;;;;;;;;;;;;;;;;;5105529;28;20493;-69
2021/12/12 19:35:58;;;;;;;;;;;9.20;99.90;;;;;;5104068;28;19912;-70
2021/12/12 19:38:28;;;;;;;;;;;;;;;;;;5088324;28;19916;-70
2021/12/12 19:40:54;;;;;;;;;;;;;;;;;;5088709;28;20042;-70
2021/12/12 19:43:20;;;;;;;;;;;;;;;;;;5112606;28;20068;-73
2021/12/12 19:45:49;;;;;;;;;;;9.40;99.90;;;;;;5112205;28;19908;-69
2021/12/12 19:48:15;;;;;;;;;;;;;;;;;;5112849;28;19912;-70
2021/12/12 19:50:41;;;;;;;;;;;;;;;;;;5098098;28;20552;-70
2021/12/12 19:53:08;;;;;;;;;;;;;;;;;;5080364;28;19912;-70
2021/12/12 19:55:34;;;;;;;;;;;;;;;;;;5092418;28;19919;-70
2021/12/12 19:58:00;;;;;;;;;;;;;;;;;;5091965;28;19919;-72
2021/12/12 20:00:26;;;;;;;;;;;;;;;;;;5103448;28;19918;-69
2021/12/12 20:02:51;;;;;;;;;;;;;;;;;;5093359;28;19916;-70
2021/12/12 20:05:18;;;;;;;;;;;9.40;99.90;;;;;;5073527;28;20288;-69
2021/12/12 20:07:46;;;;;;;;;;;;;;;;;;5084270;28;19915;-70
2021/12/12 20:10:12;;;;;;;;;;;;;;;;;;5093561;28;20311;-70
2021/12/12 20:12:38;;;;;;;;;;;;;;;;;;5093200;28;19973;-70
2021/12/12 20:15:04;;;;;;;;;;;;;;;;;;5098508;28;20399;-70
2021/12/12 20:17:30;;;;;;;;;;;;;;;;;;5110131;28;19916;-70
2021/12/12 20:19:56;;;;;;;;;;;;;;;;;;5111509;28;19943;-70
2021/12/12 20:22:22;;;;;;;;;;;;;;;;;;5100178;28;19944;-73
2021/12/12 20:24:47;;;;;;;;;;;;;;;;;;5092855;28;19912;-71
2021/12/12 20:27:14;;;;;;;;;;;;;;;;;;5103225;28;19911;-71
2021/12/12 20:29:39;;;;;;;;;;;;;;;;;;5089225;28;19918;-71
2021/12/12 20:32:05;;;;;;;;;;;;;;;;;;5111271;28;19915;-70
2021/12/12 20:34:31;;;;;;;;;;;;;;;;;;5091375;28;19928;-70
2021/12/12 20:36:57;;;;;;;;;;;;;;;;;;5111500;28;20245;-71
2021/12/12 20:39:23;;;;;;;;;;;;;;;;;;5100376;28;19916;-73
2021/12/12 20:41:57;;;;;;;;;;;9.30;99.90;;;;;;5072143;28;19908;-70
2021/12/12 20:44:23;;;;;;;;;;;;;;;;;;5109912;28;19982;-74
2021/12/12 20:46:48;;;;;;;;;;;;;;;;;;5107451;28;20666;-70
2021/12/12 20:49:21;;;;;;;;;;;9.40;99.90;;;;;;5092463;28;19916;-70
2021/12/12 20:51:49;;;;;;;;;;;9.40;99.90;;;;;;5110928;28;19912;-70
2021/12/12 20:54:15;;;;;;;;;;;;;;;;;;5077344;28;19931;-70
2021/12/12 20:56:43;;;;;;;;;;;9.40;99.90;;;;;;5104201;28;19912;-70
2021/12/12 20:59:30;;;;;;;;;;;9.30;99.90;;;;;;5113560;28;20320;-70
2021/12/12 21:01:57;;;;;;;;;;;9.40;99.90;;;;;;5102184;28;20027;-70
2021/12/12 21:04:23;;;;;;;;;;;;;;;;;;5101322;28;19916;-73
2021/12/12 21:06:49;;;;;;;;;;;;;;;;;;5103873;28;20371;-70
2021/12/12 21:09:19;;;;;;;;;;;9.20;99.90;;;;;;5095688;28;19908;-70
2021/12/12 21:11:48;;;;;;;;;;;9.20;99.90;;;;;;5102993;28;19912;-70
2021/12/12 21:14:14;;;;;;;;;;;;;;;;;;5106180;28;19928;-71
2021/12/12 21:16:39;;;;;;;;;;;9.30;99.90;;;;;;5106946;28;19998;-70
2021/12/12 21:19:05;;;;;;;;;;;;;;;;;;5105864;28;19930;-70
2021/12/12 21:21:35;;;;;;;;;;;9.20;99.90;;;;;;5106942;28;20248;-70
2021/12/12 21:24:20;;;;;;;;;;;9.20;99.90;;;;;;5113409;28;20363;-69
2021/12/12 21:26:52;;;;;;;;;;;9.20;99.90;;;;;;5112527;28;19947;-70
2021/12/12 21:29:20;;;;;;;;;;;9.20;99.90;;;;;;5114308;28;19987;-69
2021/12/12 21:31:48;;;;;;;;;;;9.10;99.90;;;;;;5095163;28;19908;-70
2021/12/12 21:34:19;;;;;;;;;;;9.20;99.90;;;;;;5094548;28;19924;-70
2021/12/12 21:36:53;;;;;;;;;;;9.20;99.90;;;;;;5103319;28;19908;-69
2021/12/12 21:39:30;;;;;;;;;;;9.20;99.90;;;;;;5093482;28;20375;-69
2021/12/12 21:42:05;;;;;;;;;;;9.20;99.90;;;;;;5084673;28;19960;-69
2021/12/12 21:44:37;;;;;;;;;;;9.20;99.90;;;;;;5113175;28;20360;-69
2021/12/12 21:47:03;;;;;;;;;;;;;;;;;;5077734;28;19916;-70
2021/12/12 21:49:43;;;;;;;;;;;9.20;99.90;;;;;;5102268;28;20334;-69
2021/12/12 21:52:08;;;;;;;;;;;9.20;99.90;;;;;;5108136;28;20287;-69
2021/12/12 21:54:34;;;;;;;;;;;;;;;;;;5112584;28;20003;-69